createdAt,value
2018-01-31T01:52:27.896Z,71.80
2018-01-31T01:54:55.434Z,70.80
2018-01-31T01:57:23.710Z,71.50
2018-01-31T01:59:51.226Z,72.00
2018-01-31T02:02:18.750Z,71.20
2018-01-31T02:04:47.101Z,71.00
2018-01-31T02:07:14.616Z,71.00
2018-01-31T02:09:42.167Z,71.30
2018-01-31T02:12:09.702Z,71.40
2018-01-31T02:14:37.230Z,71.20
2018-01-31T02:17:04.751Z,71.40
2018-01-31T02:19:33.029Z,71.70
2018-01-31T02:22:01.299Z,71.80
2018-01-31T02:24:29.584Z,72.50
2018-01-31T02:26:57.102Z,71.90
2018-01-31T02:29:24.947Z,72.20
2018-01-31T02:31:52.450Z,72.30
2018-01-31T02:34:19.957Z,72.60
2018-01-31T02:36:48.273Z,73.10
2018-01-31T02:39:30.735Z,73.00
2018-01-31T02:41:59.052Z,73.60
2018-01-31T02:44:26.583Z,73.50
2018-01-31T02:46:54.898Z,74.00
2018-01-31T02:49:22.407Z,74.00
2018-01-31T02:51:49.912Z,73.90
2018-01-31T02:54:17.422Z,73.80
2018-01-31T02:56:44.930Z,74.00
2018-01-31T02:59:13.193Z,74.40
2018-01-31T03:01:41.482Z,74.50
2018-01-31T03:04:09.761Z,74.90
2018-01-31T03:06:37.281Z,74.80
2018-01-31T03:09:05.898Z,75.00
2018-01-31T03:11:33.488Z,74.90
2018-01-31T03:14:01.755Z,75.90
2018-01-31T03:16:30.032Z,76.10
2018-01-31T03:18:58.330Z,76.70
2018-01-31T03:21:26.826Z,76.30
2018-01-31T03:23:55.082Z,76.70
2018-01-31T03:28:43.331Z,76.80
2018-01-31T03:31:11.057Z,76.80
2018-01-31T03:33:38.578Z,76.50
2018-01-31T03:36:06.114Z,76.50
2018-01-31T03:38:33.642Z,76.50
2018-01-31T03:41:01.141Z,76.70
2018-01-31T03:43:28.736Z,76.60
2018-01-31T03:45:56.253Z,76.30
2018-01-31T03:48:23.753Z,76.00
2018-01-31T03:50:51.287Z,75.90
2018-01-31T03:53:18.775Z,75.80
2018-01-31T03:55:46.300Z,76.00
2018-01-31T03:58:13.923Z,76.20
2018-01-31T04:00:42.210Z,76.20
2018-01-31T04:03:10.476Z,76.20
2018-01-31T04:05:38.808Z,76.70
2018-01-31T04:08:08.065Z,76.70
2018-01-31T04:10:36.369Z,77.40
2018-01-31T04:13:04.608Z,76.30
2018-01-31T04:15:32.901Z,75.90
2018-01-31T04:18:00.380Z,75.90
2018-01-31T04:20:28.673Z,75.80
2018-01-31T04:22:56.946Z,75.80
2018-01-31T04:25:25.218Z,75.90
2018-01-31T04:27:52.737Z,75.80
2018-01-31T04:30:20.309Z,76.00
2018-01-31T04:32:47.857Z,76.10
2018-01-31T04:35:15.338Z,75.90
2018-01-31T04:37:42.831Z,76.10
2018-01-31T04:40:10.328Z,76.40
2018-01-31T04:42:37.831Z,76.10
2018-01-31T04:45:05.329Z,75.80
2018-01-31T04:47:33.605Z,75.00
2018-01-31T04:50:01.871Z,74.80
2018-01-31T04:52:30.536Z,74.70
2018-01-31T04:54:58.038Z,74.50
2018-01-31T04:57:26.321Z,74.60
2018-01-31T04:59:54.592Z,74.30
2018-01-31T05:02:22.107Z,74.30
2018-01-31T05:04:49.601Z,74.00
2018-01-31T05:07:17.106Z,74.30
2018-01-31T05:09:45.374Z,73.70
2018-01-31T05:12:13.642Z,73.70
2018-01-31T05:14:41.133Z,73.70
2018-01-31T05:17:08.645Z,74.00
2018-01-31T05:19:36.157Z,74.10
2018-01-31T05:22:03.693Z,74.10
2018-01-31T05:24:31.233Z,74.20
2018-01-31T05:26:58.720Z,74.10
2018-01-31T05:29:26.667Z,74.10
2018-01-31T05:31:54.195Z,73.80
2018-01-31T05:34:21.681Z,73.80
2018-01-31T05:36:49.207Z,73.80
2018-01-31T05:39:17.525Z,74.00
2018-01-31T05:41:45.052Z,74.00
2018-01-31T05:44:13.319Z,73.90
2018-01-31T05:46:41.603Z,73.80
2018-01-31T05:49:09.909Z,73.50
2018-01-31T05:51:37.416Z,73.40
2018-01-31T05:54:04.932Z,73.50
2018-01-31T05:56:32.450Z,73.70
2018-01-31T05:58:59.976Z,73.90
2018-01-31T06:01:27.468Z,73.90
2018-01-31T06:03:54.976Z,73.60
2018-01-31T06:06:23.295Z,73.80
2018-01-31T06:08:50.812Z,73.80
2018-01-31T06:11:19.076Z,74.00
2018-01-31T06:13:46.593Z,74.00
2018-01-31T06:16:14.089Z,74.10
2018-01-31T06:18:41.672Z,74.20
2018-01-31T06:21:09.180Z,74.00
2018-01-31T06:23:36.686Z,74.50
2018-01-31T06:26:04.207Z,73.90
2018-01-31T06:28:31.742Z,73.80
2018-01-31T06:31:00.015Z,73.80
2018-01-31T06:33:28.320Z,74.80
2018-01-31T06:35:55.812Z,74.10
2018-01-31T06:38:23.326Z,74.30
2018-01-31T06:40:51.638Z,74.00
2018-01-31T06:43:19.176Z,74.00
2018-01-31T06:45:47.450Z,73.90
2018-01-31T06:48:15.745Z,73.90
2018-01-31T06:50:43.480Z,73.80
2018-01-31T06:53:10.988Z,74.00
2018-01-31T06:55:38.503Z,73.90
2018-01-31T06:58:05.993Z,74.10
2018-01-31T07:00:34.318Z,73.70
2018-01-31T07:03:01.834Z,73.70
2018-01-31T07:05:30.105Z,73.70
2018-01-31T07:07:58.380Z,73.20
2018-01-31T07:10:25.906Z,73.60
2018-01-31T07:12:53.439Z,73.20
2018-01-31T07:15:20.931Z,73.50
2018-01-31T07:17:48.457Z,73.60
2018-01-31T07:20:15.945Z,73.60
2018-01-31T07:22:43.468Z,74.20
2018-01-31T07:25:11.823Z,74.50
2018-01-31T07:27:40.169Z,74.60
2018-01-31T07:30:09.152Z,74.50
2018-01-31T07:32:36.675Z,74.50
2018-01-31T07:35:04.198Z,74.50
2018-01-31T07:37:31.733Z,74.30
2018-01-31T07:40:00.012Z,74.00
2018-01-31T07:42:28.305Z,73.80
2018-01-31T07:44:55.839Z,73.70
2018-01-31T07:47:23.392Z,73.60
2018-01-31T07:49:51.683Z,73.50
2018-01-31T07:52:19.977Z,73.60
2018-01-31T07:54:48.254Z,74.00
2018-01-31T07:57:16.521Z,73.80
2018-01-31T07:59:44.071Z,73.80
2018-01-31T08:02:11.632Z,73.60
2018-01-31T08:04:39.148Z,73.80
2018-01-31T08:07:06.636Z,73.50
2018-01-31T08:09:34.154Z,73.50
2018-01-31T08:12:01.650Z,73.40
2018-01-31T08:14:29.153Z,73.30
2018-01-31T08:16:56.670Z,73.20
2018-01-31T08:19:24.945Z,73.30
2018-01-31T08:21:52.445Z,73.20
2018-01-31T08:24:19.959Z,73.30
2018-01-31T08:26:48.216Z,73.70
2018-01-31T08:29:16.766Z,73.50
2018-01-31T08:31:44.561Z,74.00
2018-01-31T08:34:12.605Z,74.30
2018-01-31T08:36:40.117Z,74.30
2018-01-31T08:39:07.646Z,74.90
2018-01-31T08:41:35.133Z,75.00
2018-01-31T08:44:03.965Z,75.40
2018-01-31T08:46:31.482Z,75.20
2018-01-31T08:48:58.995Z,75.20
2018-01-31T08:51:26.518Z,75.30
2018-01-31T08:53:54.037Z,75.60
2018-01-31T08:56:21.552Z,75.90
2018-01-31T08:58:49.070Z,75.90
2018-01-31T09:01:16.598Z,76.80
2018-01-31T09:03:44.869Z,79.40
2018-01-31T09:06:13.190Z,79.70
2018-01-31T09:08:40.688Z,79.60
2018-01-31T09:11:08.180Z,80.30
2018-01-31T09:13:36.475Z,80.60
2018-01-31T09:16:04.779Z,80.50
2018-01-31T09:18:32.280Z,80.40
2018-01-31T09:20:59.810Z,80.30
2018-01-31T09:23:27.327Z,81.30
2018-01-31T09:25:54.875Z,82.20
2018-01-31T09:28:23.290Z,82.60
2018-01-31T09:30:51.574Z,84.70
2018-01-31T09:33:19.824Z,84.90
2018-01-31T09:35:48.834Z,85.90
2018-01-31T09:38:17.112Z,85.90
2018-01-31T09:40:44.643Z,85.90
2018-01-31T09:43:12.124Z,86.20
2018-01-31T09:45:40.413Z,87.60
2018-01-31T09:48:07.949Z,87.00
2018-01-31T09:50:35.496Z,87.10
2018-01-31T09:53:03.005Z,87.50
2018-01-31T09:55:32.151Z,87.70
2018-01-31T09:57:59.675Z,87.70
2018-01-31T10:00:27.199Z,88.70
2018-01-31T10:02:54.727Z,89.20
2018-01-31T10:05:22.993Z,90.30
2018-01-31T10:07:51.267Z,90.10
2018-01-31T10:10:19.543Z,90.30
2018-01-31T10:12:47.033Z,90.50
2018-01-31T10:15:14.547Z,90.40
2018-01-31T10:17:42.049Z,90.30
2018-01-31T10:20:10.297Z,90.40
2018-01-31T10:22:37.843Z,90.40
2018-01-31T10:25:05.351Z,90.30
2018-01-31T10:27:33.644Z,90.30
2018-01-31T10:30:01.937Z,90.30
2018-01-31T10:32:29.455Z,90.30
2018-01-31T10:34:56.960Z,90.30
2018-01-31T10:37:24.509Z,90.20
2018-01-31T10:39:52.034Z,90.20
2018-01-31T10:42:19.564Z,90.40
2018-01-31T10:44:47.117Z,90.40
2018-01-31T10:47:14.660Z,90.30
2018-01-31T10:49:42.981Z,90.00
2018-01-31T10:52:10.495Z,90.00
2018-01-31T10:57:28.763Z,89.10
2018-01-31T10:59:33.070Z,89.50
2018-01-31T11:02:00.571Z,89.40
2018-01-31T11:04:28.833Z,89.40
2018-01-31T11:06:57.125Z,89.10
2018-01-31T11:09:26.309Z,88.80
2018-01-31T11:11:53.869Z,88.70
2018-01-31T11:14:21.382Z,88.60
2018-01-31T11:16:48.989Z,88.90
2018-01-31T11:19:16.507Z,88.90
2018-01-31T11:21:44.029Z,89.20
2018-01-31T11:24:11.553Z,88.80
2018-01-31T11:26:39.123Z,88.70
2018-01-31T11:29:06.596Z,88.20
2018-01-31T11:31:34.109Z,87.60
2018-01-31T11:34:02.350Z,86.80
2018-01-31T11:36:29.871Z,86.70
2018-01-31T11:38:57.371Z,87.00
2018-01-31T11:41:24.969Z,86.40
2018-01-31T11:43:53.321Z,85.70
2018-01-31T11:46:20.855Z,85.70
2018-01-31T11:48:48.380Z,85.20
2018-01-31T11:51:16.657Z,84.60
2018-01-31T11:53:44.924Z,84.50
2018-01-31T11:56:12.438Z,84.50
2018-01-31T11:58:39.971Z,84.60
2018-01-31T12:01:07.822Z,83.50
2018-01-31T12:03:36.153Z,83.30
2018-01-31T12:06:03.654Z,83.30
2018-01-31T12:08:31.153Z,83.40
2018-01-31T12:10:58.673Z,82.80
2018-01-31T12:16:49.993Z,82.50
2018-01-31T12:19:38.338Z,82.50
2018-01-31T12:22:17.742Z,82.30
2018-01-31T12:24:57.042Z,81.80
2018-01-31T12:27:36.595Z,81.70
2018-01-31T12:30:15.879Z,81.40
2018-01-31T12:32:55.253Z,81.20
2018-01-31T12:35:43.609Z,81.90
2018-01-31T12:38:23.066Z,81.50
2018-01-31T12:40:50.091Z,80.70
2018-01-31T12:43:17.100Z,80.60
2018-01-31T12:45:44.886Z,80.30
2018-01-31T12:48:24.952Z,80.70
2018-01-31T12:51:04.552Z,80.60
2018-01-31T12:53:52.907Z,80.20
2018-01-31T12:59:31.592Z,79.90
2018-01-31T13:02:10.882Z,80.10
2018-01-31T13:04:50.321Z,80.60
2018-01-31T13:07:25.432Z,80.00
2018-01-31T13:10:17.282Z,79.90
2018-01-31T13:12:56.765Z,79.90
2018-01-31T13:15:36.916Z,79.90
2018-01-31T13:21:24.728Z,79.90
2018-01-31T13:24:04.002Z,80.00
2018-01-31T13:26:43.543Z,80.00
2018-01-31T13:29:19.540Z,80.00
2018-01-31T13:31:59.836Z,80.00
2018-01-31T13:34:40.077Z,80.00
2018-01-31T13:37:36.272Z,80.00
2018-01-31T13:40:28.443Z,80.10
2018-01-31T13:43:08.459Z,80.40
2018-01-31T13:45:48.088Z,80.40
2018-01-31T13:48:36.358Z,80.50
2018-01-31T13:51:16.461Z,81.00
2018-01-31T13:53:55.937Z,81.00
2018-01-31T13:56:36.056Z,81.00
2018-01-31T13:59:15.269Z,80.60
2018-01-31T14:01:54.617Z,80.60
2018-01-31T14:04:42.842Z,80.40
2018-01-31T14:07:22.126Z,80.30
2018-01-31T14:10:02.483Z,80.10
2018-01-31T14:12:41.833Z,80.10
2018-01-31T14:15:22.127Z,80.30
2018-01-31T14:18:01.365Z,80.30
2018-01-31T14:20:40.640Z,80.00
2018-01-31T14:23:20.737Z,80.20
2018-01-31T14:26:00.186Z,80.20
2018-01-31T14:31:42.237Z,80.10
2018-01-31T14:34:21.749Z,79.80
2018-01-31T14:36:49.571Z,79.50
2018-01-31T14:39:16.581Z,79.30
2018-01-31T14:41:44.358Z,79.50
2018-01-31T14:44:12.143Z,79.30
2018-01-31T14:46:39.237Z,79.30
2018-01-31T14:49:06.253Z,79.20
2018-01-31T14:51:33.261Z,79.40
2018-01-31T14:54:01.044Z,79.40
2018-01-31T14:56:28.895Z,79.20
2018-01-31T14:58:55.921Z,79.20
2018-01-31T15:01:22.926Z,79.40
2018-01-31T15:03:50.768Z,79.20
2018-01-31T15:06:18.577Z,79.10
2018-01-31T15:08:45.602Z,79.10
2018-01-31T15:11:13.403Z,79.20
2018-01-31T15:13:40.410Z,79.20
2018-01-31T15:16:07.421Z,79.00
2018-01-31T15:18:34.505Z,79.10
2018-01-31T15:21:01.532Z,78.90
2018-01-31T15:23:28.552Z,78.80
2018-01-31T15:25:55.584Z,78.70
2018-01-31T15:28:24.116Z,78.60
2018-01-31T15:30:51.168Z,78.60
2018-01-31T15:33:18.224Z,78.60
2018-01-31T15:35:45.279Z,78.70
2018-01-31T15:38:12.293Z,78.70
2018-01-31T15:40:40.067Z,78.80
2018-01-31T15:43:08.106Z,78.70
2018-01-31T15:45:35.131Z,78.70
2018-01-31T15:48:02.141Z,78.70
2018-01-31T15:50:29.978Z,78.50
2018-01-31T15:52:56.991Z,78.40
2018-01-31T15:55:24.028Z,78.60
2018-01-31T15:57:51.824Z,77.80
2018-01-31T16:00:18.844Z,77.70
2018-01-31T16:02:46.816Z,78.00
2018-01-31T16:05:14.614Z,78.00
2018-01-31T16:07:41.636Z,77.90
2018-01-31T16:10:09.398Z,78.10
2018-01-31T16:12:36.500Z,78.00
2018-01-31T16:15:03.512Z,78.30
2018-01-31T16:17:33.926Z,78.10
2018-01-31T16:20:14.478Z,78.70
2018-01-31T16:22:42.144Z,78.20
2018-01-31T16:25:09.794Z,78.20
2018-01-31T16:28:02.976Z,78.30
2018-01-31T16:30:43.170Z,78.10
2018-01-31T16:33:22.690Z,77.90
2018-01-31T16:35:50.193Z,77.60
2018-01-31T16:38:17.909Z,77.60
2018-01-31T16:40:45.457Z,77.30
2018-01-31T16:43:13.731Z,77.70
2018-01-31T16:45:41.268Z,77.70
2018-01-31T16:48:08.797Z,78.40
2018-01-31T16:50:36.390Z,78.40
2018-01-31T16:53:03.927Z,79.00
2018-01-31T16:55:31.514Z,79.80
2018-01-31T16:57:59.089Z,80.00
2018-01-31T17:00:26.632Z,80.10
2018-01-31T17:02:54.112Z,79.50
2018-01-31T17:05:21.668Z,79.30
2018-01-31T17:07:49.227Z,79.30
2018-01-31T17:10:17.965Z,79.30
2018-01-31T17:12:45.471Z,79.30
2018-01-31T17:15:12.995Z,79.50
2018-01-31T17:17:41.268Z,79.30
2018-01-31T17:20:08.813Z,79.30
2018-01-31T17:22:36.296Z,79.40
2018-01-31T17:25:04.581Z,79.50
2018-01-31T17:27:32.910Z,80.10
2018-01-31T17:30:00.440Z,79.80
2018-01-31T17:32:28.751Z,79.60
2018-01-31T17:34:56.365Z,79.50
2018-01-31T17:37:23.966Z,79.60
2018-01-31T17:39:51.509Z,79.70
2018-01-31T17:42:19.774Z,80.00
2018-01-31T17:44:48.090Z,79.60
2018-01-31T17:47:15.739Z,79.60
2018-01-31T17:49:43.249Z,79.50
2018-01-31T17:52:10.763Z,79.50
2018-01-31T17:54:39.033Z,79.50
2018-01-31T17:57:07.351Z,79.50
2018-01-31T17:59:34.855Z,79.40
2018-01-31T18:02:02.496Z,79.00
2018-01-31T18:04:30.037Z,79.10
2018-01-31T18:06:58.287Z,78.50
2018-01-31T18:09:25.894Z,78.50
2018-01-31T18:11:53.410Z,78.40
2018-01-31T18:14:21.686Z,78.20
2018-01-31T18:16:49.217Z,78.20
2018-01-31T18:19:16.744Z,78.20
2018-01-31T18:21:45.051Z,77.80
2018-01-31T18:24:12.574Z,77.80
2018-01-31T18:26:40.892Z,78.50
2018-01-31T18:29:08.441Z,78.10
2018-01-31T18:31:36.748Z,77.80
2018-01-31T18:34:04.281Z,77.80
2018-01-31T18:36:32.578Z,77.80
2018-01-31T18:39:00.075Z,77.80
2018-01-31T18:41:27.600Z,77.50
2018-01-31T18:43:55.137Z,77.50
2018-01-31T18:46:23.411Z,77.70
2018-01-31T18:48:50.936Z,77.00
2018-01-31T18:51:18.424Z,77.30
2018-01-31T18:53:45.956Z,76.80
2018-01-31T18:56:13.478Z,76.90
2018-01-31T18:58:41.782Z,76.70
2018-01-31T19:01:09.304Z,76.50
2018-01-31T19:03:36.809Z,76.20
2018-01-31T19:06:04.413Z,76.00
2018-01-31T19:08:32.116Z,76.30
2018-01-31T19:11:00.390Z,76.50
2018-01-31T19:13:29.412Z,76.00
2018-01-31T19:15:57.717Z,75.80
2018-01-31T19:18:25.222Z,75.70
2018-01-31T19:20:52.721Z,75.90
2018-01-31T19:23:21.935Z,75.60
2018-01-31T19:25:49.436Z,75.50
2018-01-31T19:28:17.906Z,75.40
2018-01-31T19:30:45.412Z,75.30
2018-01-31T19:33:13.688Z,75.20
2018-01-31T19:35:41.282Z,74.80
2018-01-31T19:38:08.859Z,75.00
2018-01-31T19:40:36.378Z,74.90
2018-01-31T19:43:03.928Z,74.80
2018-01-31T19:45:31.497Z,74.20
2018-01-31T19:47:59.031Z,74.00
2018-01-31T19:50:26.540Z,72.80
2018-01-31T19:52:54.894Z,74.60
2018-01-31T19:55:22.369Z,74.60
2018-01-31T19:57:49.967Z,76.20
2018-01-31T20:00:18.242Z,79.50
2018-01-31T20:02:46.518Z,81.20
2018-01-31T20:05:14.845Z,82.70
2018-01-31T20:07:42.356Z,82.70
2018-01-31T20:10:10.675Z,85.40
2018-01-31T20:12:38.248Z,85.40
2018-01-31T20:15:05.785Z,85.60
2018-01-31T20:17:34.065Z,87.10
2018-01-31T20:20:02.380Z,87.40
2018-01-31T20:22:29.892Z,87.30
2018-01-31T20:24:58.201Z,88.30
2018-01-31T20:27:25.735Z,88.10
2018-01-31T20:29:54.046Z,89.00
2018-01-31T20:32:21.579Z,88.90
2018-01-31T20:34:49.852Z,89.60
2018-01-31T20:37:17.391Z,89.50
2018-01-31T20:39:45.538Z,89.30
2018-01-31T20:42:13.103Z,89.30
2018-01-31T20:44:40.638Z,89.50
2018-01-31T20:47:08.975Z,88.10
2018-01-31T20:49:36.541Z,88.10
2018-01-31T20:52:04.102Z,87.50
2018-01-31T20:54:31.614Z,87.90
2018-01-31T20:57:00.775Z,88.20
2018-01-31T20:59:28.265Z,88.20
2018-01-31T21:01:55.901Z,88.20
2018-01-31T21:04:24.645Z,89.00
2018-01-31T21:06:52.340Z,89.00
2018-01-31T21:09:19.893Z,89.30
2018-01-31T21:11:47.468Z,89.00
2018-01-31T21:14:15.020Z,87.20
2018-01-31T21:16:42.674Z,87.70
2018-01-31T21:19:10.938Z,88.80
2018-01-31T21:21:38.523Z,88.80
2018-01-31T21:24:06.052Z,87.80
2018-01-31T21:26:34.055Z,87.90
2018-01-31T21:29:02.328Z,88.50
2018-01-31T21:31:30.610Z,87.50
2018-01-31T21:33:58.906Z,87.50
2018-01-31T21:36:27.284Z,87.50
2018-01-31T21:38:54.819Z,87.90
2018-01-31T21:41:23.192Z,87.40
2018-01-31T21:43:50.708Z,87.40
2018-01-31T21:46:18.242Z,87.30
2018-01-31T21:48:46.603Z,87.20
2018-01-31T21:51:14.901Z,86.90
2018-01-31T21:53:43.177Z,87.30
2018-01-31T21:56:10.881Z,87.30
2018-01-31T21:58:38.423Z,88.00
2018-01-31T22:01:06.734Z,87.40
2018-01-31T22:03:34.222Z,87.40
2018-01-31T22:06:01.728Z,87.00
2018-01-31T22:08:29.312Z,87.00
2018-01-31T22:10:57.584Z,86.60
2018-01-31T22:13:25.844Z,85.90
2018-01-31T22:15:53.331Z,85.90
2018-01-31T22:18:21.627Z,85.50
2018-01-31T22:20:49.146Z,85.50
2018-01-31T22:23:16.638Z,85.30
2018-01-31T22:25:44.915Z,84.00
2018-01-31T22:28:13.192Z,83.60
2018-01-31T22:30:41.436Z,83.20
2018-01-31T22:33:08.981Z,83.10
2018-01-31T22:35:38.021Z,83.40
2018-01-31T22:38:05.531Z,83.00
2018-01-31T22:40:33.158Z,82.60
2018-01-31T22:43:01.582Z,82.70
2018-01-31T22:45:29.078Z,82.60
2018-01-31T22:47:56.665Z,82.70
2018-01-31T22:50:24.336Z,82.50
2018-01-31T22:52:52.624Z,82.80
2018-01-31T22:55:21.175Z,82.70
2018-01-31T22:57:49.129Z,82.70
2018-01-31T23:00:25.748Z,83.00
2018-01-31T23:02:54.020Z,82.70
2018-01-31T23:05:21.562Z,82.60
2018-01-31T23:07:49.137Z,82.30
2018-01-31T23:10:16.753Z,82.60
2018-01-31T23:12:50.050Z,81.90
2018-01-31T23:15:17.606Z,81.70
2018-01-31T23:17:50.897Z,81.80
2018-01-31T23:20:19.161Z,82.50
2018-01-31T23:22:47.413Z,82.60
2018-01-31T23:25:15.103Z,82.40
2018-01-31T23:27:42.662Z,81.90
2018-01-31T23:30:10.202Z,81.60
2018-01-31T23:32:39.339Z,82.40
2018-01-31T23:35:07.649Z,82.80
2018-01-31T23:37:35.155Z,82.70
2018-01-31T23:40:03.498Z,82.70
2018-01-31T23:42:31.000Z,83.40
2018-01-31T23:44:59.405Z,82.40
2018-01-31T23:47:27.757Z,81.30
2018-01-31T23:49:55.321Z,81.30
2018-01-31T23:52:22.894Z,80.60
2018-01-31T23:54:50.420Z,80.20
2018-01-31T23:57:17.971Z,81.10
2018-01-31T23:59:45.487Z,80.50
